Time;durP1;ratioP1;P1;durP2;ratioP2;P2;SDS_P1;SDS_P2;PMS_P1;PMS_P2;Temp;Humidity;BMP_temperature;BMP_pressure;BME280_temperature;BME280_humidity;BME280_pressure;Samples;Min_cycle;Max_cycle;Signal;HPM_P1;HPM_P2
2021/03/31 00:00:33;;;;;;;5.82;4.20;;;17.60;99.90;;;;;;5072623;28;20069;-79
2021/03/31 00:03:01;;;;;;;6.55;4.35;;;17.50;99.90;;;;;;5072601;28;20025;-79
2021/03/31 00:05:27;;;;;;;6.35;4.40;;;17.50;99.90;;;;;;5072263;28;20032;-79
2021/03/31 00:07:53;;;;;;;4.55;4.10;;;17.40;99.90;;;;;;5072429;28;20106;-79
2021/03/31 00:10:34;;;;;;;7.00;3.95;;;17.40;99.90;;;;;;5071114;28;20475;-78
2021/03/31 00:12:59;;;;;;;6.32;4.63;;;17.40;99.90;;;;;;5072414;28;20013;-79
2021/03/31 00:15:25;;;;;;;6.97;4.15;;;17.40;99.90;;;;;;5072434;28;20492;-78
2021/03/31 00:17:51;;;;;;;7.68;4.18;;;17.30;99.90;;;;;;5072558;28;20024;-78
2021/03/31 00:20:17;;;;;;;6.75;4.30;;;17.40;99.90;;;;;;5081954;28;20146;-79
2021/03/31 00:22:44;;;;;;;8.30;4.43;;;17.30;99.90;;;;;;5092452;28;20119;-79
2021/03/31 00:25:11;;;;;;;5.93;4.60;;;17.30;99.90;;;;;;5092519;28;20103;-79
2021/03/31 00:27:37;;;;;;;6.03;4.10;;;17.30;99.90;;;;;;5092353;28;20024;-78
2021/03/31 00:30:06;;;;;;;6.75;4.55;;;17.20;99.90;;;;;;5092487;28;20073;-78
2021/03/31 00:32:32;;;;;;;5.75;4.22;;;17.20;99.90;;;;;;5092695;28;20391;-78
2021/03/31 00:34:57;;;;;;;8.88;4.57;;;17.20;99.90;;;;;;5092079;28;20050;-79
2021/03/31 00:37:23;;;;;;;6.07;4.45;;;17.30;99.90;;;;;;5092614;28;20020;-78
2021/03/31 00:39:49;;;;;;;6.97;4.55;;;17.20;99.90;;;;;;5092400;28;20031;-78
2021/03/31 00:42:14;;;;;;;5.63;4.10;;;17.00;99.90;;;;;;5091047;28;20131;-78
2021/03/31 00:44:40;;;;;;;6.00;4.70;;;16.80;99.90;;;;;;5092500;28;20391;-78
2021/03/31 00:47:05;;;;;;;6.45;4.40;;;16.80;99.90;;;;;;5092422;28;20043;-78
2021/03/31 00:49:32;;;;;;;6.78;4.47;;;16.70;99.90;;;;;;5091936;28;20535;-78
2021/03/31 00:51:58;;;;;;;5.90;4.15;;;16.60;99.90;;;;;;5092085;28;20100;-78
2021/03/31 00:54:24;;;;;;;6.68;4.30;;;16.70;99.90;;;;;;5092244;28;20521;-79
2021/03/31 00:56:50;;;;;;;7.72;4.55;;;16.60;99.90;;;;;;5092227;28;20096;-78
2021/03/31 00:59:15;;;;;;;7.43;4.70;;;16.60;99.90;;;;;;5092134;28;20062;-78
2021/03/31 01:01:41;;;;;;;6.85;4.50;;;16.70;99.90;;;;;;5092425;28;20105;-78
2021/03/31 01:04:07;;;;;;;6.45;4.43;;;16.60;99.90;;;;;;5090378;28;20028;-78
2021/03/31 01:06:32;;;;;;;7.90;5.00;;;16.60;99.90;;;;;;5095964;28;20024;-78
2021/03/31 01:08:58;;;;;;;7.80;4.40;;;16.50;99.90;;;;;;5096201;28;20464;-79
2021/03/31 01:11:50;;;;;;;7.47;4.07;;;16.50;99.90;;;;;;5095909;28;20031;-78
2021/03/31 01:14:53;;;;;;;7.30;4.97;;;16.40;99.90;;;;;;5073205;28;20047;-78
2021/03/31 01:18:09;;;;;;;7.53;4.07;;;16.40;99.90;;;;;;5073326;28;20047;-79
2021/03/31 01:21:09;;;;;;;6.55;4.13;;;16.30;99.90;;;;;;4993948;28;20091;-79
2021/03/31 01:23:51;;;;;;;7.78;4.60;;;16.20;99.90;;;;;;4994225;28;20422;-79
2021/03/31 01:26:35;;;;;;;5.75;4.32;;;16.20;99.90;;;;;;4993881;28;20081;-78
2021/03/31 01:29:41;;;;;;;7.20;4.60;;;16.10;99.90;;;;;;4993717;28;20169;-79
2021/03/31 01:32:30;;;;;;;7.78;4.50;;;16.10;99.90;;;;;;4988033;28;20030;-78
2021/03/31 01:35:00;;;;;;;6.72;4.80;;;16.10;99.90;;;;;;4993899;28;20457;-78
2021/03/31 01:37:49;;;;;;;8.15;4.38;;;16.00;99.90;;;;;;4993643;28;20511;-78
2021/03/31 01:40:18;;;;;;;7.85;4.43;;;15.80;99.90;;;;;;4993426;28;20494;-78
2021/03/31 01:42:53;;;;;;;8.35;4.38;;;15.50;99.90;;;;;;4993659;28;20419;-79
2021/03/31 01:45:24;;;;;;;7.75;4.20;;;15.50;99.90;;;;;;4993601;28;20042;-79
2021/03/31 01:47:51;;;;;;;6.93;4.65;;;15.40;99.90;;;;;;4993581;28;20109;-78
2021/03/31 01:50:17;;;;;;;6.80;4.30;;;15.40;99.90;;;;;;4997593;28;20426;-79
2021/03/31 01:52:44;;;;;;;6.30;4.47;;;15.40;99.90;;;;;;5032747;28;20482;-78
2021/03/31 01:55:13;;;;;;;8.25;4.50;;;15.30;99.90;;;;;;5032916;28;20039;-78
2021/03/31 01:57:41;;;;;;;5.93;5.05;;;15.10;99.90;;;;;;5090692;28;20043;-78
2021/03/31 02:00:08;;;;;;;7.85;4.70;;;15.10;99.90;;;;;;5094886;28;20502;-78
2021/03/31 02:02:34;;;;;;;6.60;5.28;;;15.10;99.90;;;;;;5094496;28;20046;-78
2021/03/31 02:05:01;;;;;;;6.90;5.00;;;15.20;99.90;;;;;;5095015;28;20387;-78
2021/03/31 02:07:28;;;;;;;6.90;4.80;;;15.10;99.90;;;;;;5094841;28;20028;-78
2021/03/31 02:09:56;;;;;;;6.38;4.80;;;14.90;99.90;;;;;;5094752;28;20024;-78
2021/03/31 02:12:25;;;;;;;7.07;4.72;;;14.80;99.90;;;;;;5094658;28;20043;-78
2021/03/31 02:14:53;;;;;;;7.47;5.00;;;14.80;99.90;;;;;;5094916;28;20020;-78
2021/03/31 02:17:26;;;;;;;7.60;4.80;;;14.70;99.90;;;;;;5093930;28;20031;-78
2021/03/31 02:19:53;;;;;;;6.80;4.63;;;14.90;99.90;;;;;;5094543;28;20079;-78
2021/03/31 02:22:21;;;;;;;8.77;4.50;;;14.70;99.90;;;;;;5094338;28;20038;-78
2021/03/31 02:24:49;;;;;;;6.18;4.50;;;14.60;99.90;;;;;;5094612;28;20099;-79
2021/03/31 02:27:16;;;;;;;5.88;4.57;;;14.60;99.90;;;;;;5094397;28;20392;-78
2021/03/31 02:29:46;;;;;;;8.25;4.57;;;14.60;99.90;;;;;;5094552;28;20111;-78
2021/03/31 02:32:13;;;;;;;7.88;4.82;;;14.60;99.90;;;;;;5094082;28;20070;-78
2021/03/31 02:34:40;;;;;;;7.45;4.65;;;14.50;99.90;;;;;;5093008;28;20110;-78
2021/03/31 02:37:06;;;;;;;5.43;4.60;;;14.50;99.90;;;;;;5093113;28;20066;-78
2021/03/31 02:39:38;;;;;;;8.02;5.00;;;14.30;99.90;;;;;;5094144;28;20028;-78
2021/03/31 02:42:12;;;;;;;9.70;4.80;;;14.20;99.90;;;;;;5094177;28;20035;-78
2021/03/31 02:44:44;;;;;;;7.43;4.53;;;14.10;99.90;;;;;;5093874;28;20107;-78
2021/03/31 02:47:13;;;;;;;7.80;4.72;;;14.10;99.90;;;;;;5094257;28;20020;-78
2021/03/31 02:49:42;;;;;;;7.07;4.43;;;14.10;99.90;;;;;;5093911;28;20465;-78
2021/03/31 02:52:10;;;;;;;8.48;4.50;;;14.00;99.90;;;;;;5092659;28;20016;-78
2021/03/31 02:54:36;;;;;;;5.50;4.10;;;14.10;99.90;;;;;;5093926;28;20031;-78
2021/03/31 02:57:03;;;;;;;8.07;4.63;;;14.10;99.90;;;;;;5094010;28;20471;-78
2021/03/31 02:59:28;;;;;;;6.05;4.70;;;14.20;99.90;;;;;;5093562;28;20410;-78
2021/03/31 03:01:54;;;;;;;10.15;4.88;;;14.10;99.90;;;;;;5093981;28;20028;-78
2021/03/31 03:04:21;;;;;;;9.63;5.18;;;14.00;99.90;;;;;;5093753;28;20103;-78
2021/03/31 03:06:47;;;;;;;8.43;5.18;;;14.10;99.90;;;;;;5093738;28;20020;-78
2021/03/31 03:09:13;;;;;;;8.32;5.10;;;14.10;99.90;;;;;;5093706;28;20020;-78
2021/03/31 03:11:40;;;;;;;9.02;5.35;;;13.90;99.90;;;;;;5093653;28;20085;-78
2021/03/31 03:14:07;;;;;;;6.90;4.75;;;13.80;99.90;;;;;;5093317;28;20103;-78
2021/03/31 03:16:33;;;;;;;10.85;4.70;;;13.70;99.90;;;;;;5093522;28;20095;-78
2021/03/31 03:18:59;;;;;;;7.05;4.90;;;13.60;99.90;;;;;;5093594;28;20050;-78
2021/03/31 03:21:27;;;;;;;7.82;4.68;;;13.60;99.90;;;;;;5092985;28;20048;-78
2021/03/31 03:23:54;;;;;;;6.85;4.90;;;13.50;99.90;;;;;;5093547;28;20028;-78
2021/03/31 03:26:20;;;;;;;7.35;5.00;;;13.50;99.90;;;;;;5093420;28;20027;-78
2021/03/31 03:28:48;;;;;;;6.65;5.10;;;13.50;99.90;;;;;;5092152;28;20512;-78
2021/03/31 03:31:14;;;;;;;7.20;5.03;;;13.60;99.90;;;;;;5093305;28;20445;-78
2021/03/31 03:33:40;;;;;;;10.30;5.25;;;13.60;99.90;;;;;;5093397;28;20039;-78
2021/03/31 03:36:09;;;;;;;9.65;5.32;;;13.60;99.90;;;;;;5093290;28;20024;-78
2021/03/31 03:38:35;;;;;;;8.05;5.45;;;13.60;99.90;;;;;;5093103;28;20039;-78
2021/03/31 03:41:06;;;;;;;8.65;5.30;;;13.60;99.90;;;;;;5091992;28;20024;-78
2021/03/31 03:43:32;;;;;;;8.93;5.97;;;13.60;99.90;;;;;;5092526;28;20060;-79
2021/03/31 03:45:59;;;;;;;7.93;5.72;;;13.30;99.90;;;;;;5093102;28;20101;-78
2021/03/31 03:48:25;;;;;;;8.07;5.10;;;13.30;99.90;;;;;;5092982;28;20024;-78
2021/03/31 03:50:51;;;;;;;5.93;5.07;;;13.20;99.90;;;;;;5092806;28;20035;-78
2021/03/31 03:53:18;;;;;;;10.57;5.50;;;13.10;99.90;;;;;;5092969;28;20028;-78
2021/03/31 03:55:44;;;;;;;7.07;5.22;;;13.10;99.90;;;;;;5092941;28;20016;-79
2021/03/31 03:58:10;;;;;;;8.40;5.60;;;13.10;99.90;;;;;;5092671;28;20457;-78
2021/03/31 04:00:36;;;;;;;8.95;5.63;;;12.90;99.90;;;;;;5092755;28;20039;-78
2021/03/31 04:03:03;;;;;;;10.30;5.57;;;12.90;99.90;;;;;;5092869;28;20032;-78
2021/03/31 04:05:28;;;;;;;7.45;5.72;;;12.80;99.90;;;;;;5092636;28;20027;-78
2021/03/31 04:07:55;;;;;;;8.68;5.65;;;12.90;99.90;;;;;;5092644;28;20028;-78
2021/03/31 04:10:23;;;;;;;9.02;6.22;;;12.80;99.90;;;;;;5092700;28;20031;-78
2021/03/31 04:12:51;;;;;;;8.90;5.88;;;12.70;99.90;;;;;;5092453;28;20149;-78
2021/03/31 04:15:18;;;;;;;8.52;6.55;;;12.80;99.90;;;;;;5092653;28;20393;-78
2021/03/31 04:17:44;;;;;;;8.15;6.25;;;12.80;99.90;;;;;;5092704;28;20028;-78
2021/03/31 04:20:13;;;;;;;8.85;5.85;;;12.60;99.90;;;;;;5092342;28;20523;-78
2021/03/31 04:22:40;;;;;;;6.25;5.50;;;12.60;99.90;;;;;;5092411;28;20515;-78
2021/03/31 04:25:08;;;;;;;8.43;6.13;;;12.60;99.90;;;;;;5092476;28;20481;-78
2021/03/31 04:27:35;;;;;;;7.75;5.90;;;12.60;99.90;;;;;;5092025;28;20039;-78
2021/03/31 04:30:12;;;;;;;7.57;6.00;;;12.50;99.90;;;;;;5092507;28;20028;-78
2021/03/31 04:32:39;;;;;;;8.50;5.55;;;12.40;99.90;;;;;;5092331;28;20035;-78
2021/03/31 04:35:06;;;;;;;7.82;5.90;;;12.30;99.90;;;;;;5092505;28;20044;-78
2021/03/31 04:37:32;;;;;;;8.48;6.10;;;12.20;99.90;;;;;;5092239;28;20043;-78
2021/03/31 04:39:57;;;;;;;9.10;6.07;;;12.30;99.90;;;;;;5095197;28;20028;-78
2021/03/31 04:42:23;;;;;;;11.43;6.10;;;12.30;99.90;;;;;;5096226;28;20032;-78
2021/03/31 04:44:49;;;;;;;7.60;5.40;;;12.30;99.90;;;;;;5096568;28;20081;-78
2021/03/31 04:47:16;;;;;;;6.28;5.25;;;12.50;99.90;;;;;;5096351;28;20059;-78
2021/03/31 04:49:41;;;;;;;11.27;6.45;;;12.50;99.90;;;;;;5094984;28;20545;-80
2021/03/31 04:52:07;;;;;;;10.70;6.43;;;12.50;99.90;;;;;;5095374;28;20036;-79
2021/03/31 04:54:33;;;;;;;9.50;5.60;;;12.50;99.90;;;;;;5096214;28;20025;-78
2021/03/31 04:56:58;;;;;;;10.15;6.38;;;12.50;99.90;;;;;;5096378;28;20099;-78
2021/03/31 04:59:24;;;;;;;11.55;6.45;;;12.50;99.90;;;;;;5112398;28;20015;-78
2021/03/31 05:01:49;;;;;;;8.32;6.40;;;12.40;99.90;;;;;;5100879;28;20020;-78
2021/03/31 05:04:15;;;;;;;9.13;6.30;;;12.40;99.90;;;;;;5096351;28;20123;-78
2021/03/31 05:06:41;;;;;;;9.95;6.25;;;12.30;99.90;;;;;;5095788;28;20036;-78
2021/03/31 05:09:07;;;;;;;7.05;5.80;;;12.20;99.90;;;;;;5096857;28;20118;-78
2021/03/31 05:11:32;;;;;;;8.38;5.75;;;12.10;99.90;;;;;;5097420;28;20032;-78
2021/03/31 05:13:58;;;;;;;10.05;5.88;;;12.10;99.90;;;;;;5096520;28;20028;-78
2021/03/31 05:16:23;;;;;;;10.38;6.25;;;12.00;99.90;;;;;;5094983;28;20035;-78
2021/03/31 05:18:49;;;;;;;8.27;6.10;;;12.10;99.90;;;;;;5098464;28;20042;-78
2021/03/31 05:21:15;;;;;;;9.13;5.75;;;12.10;99.90;;;;;;5096099;28;20130;-78
2021/03/31 05:23:40;;;;;;;8.75;5.90;;;12.20;99.90;;;;;;5095951;28;20027;-78
2021/03/31 05:26:06;;;;;;;9.00;6.28;;;12.20;99.90;;;;;;5104977;28;20359;-78
2021/03/31 05:28:32;;;;;;;8.95;6.65;;;12.20;99.90;;;;;;5116496;28;20034;-79
2021/03/31 05:30:57;;;;;;;12.73;6.57;;;12.20;99.90;;;;;;5115337;28;20031;-79
2021/03/31 05:33:23;;;;;;;11.50;6.85;;;12.30;99.90;;;;;;5112997;28;20028;-78
2021/03/31 05:35:49;;;;;;;8.73;6.10;;;12.30;99.90;;;;;;5099334;28;20488;-78
2021/03/31 05:38:15;;;;;;;8.93;6.90;;;12.30;99.90;;;;;;5095285;28;20024;-78
2021/03/31 05:40:41;;;;;;;7.85;6.45;;;12.30;99.90;;;;;;5094850;28;20539;-78
2021/03/31 05:43:07;;;;;;;9.82;6.50;;;12.40;99.90;;;;;;5095390;28;20027;-78
2021/03/31 05:45:33;;;;;;;13.55;6.80;;;12.40;99.90;;;;;;5093873;28;20032;-78
2021/03/31 05:48:00;;;;;;;10.18;6.32;;;12.40;99.90;;;;;;5093866;28;20024;-78
2021/03/31 05:50:26;;;;;;;11.60;6.72;;;12.40;99.90;;;;;;5094364;28;20395;-77
2021/03/31 05:52:52;;;;;;;15.02;6.60;;;12.40;99.90;;;;;;5094981;28;20107;-77
2021/03/31 05:55:18;;;;;;;10.88;6.03;;;12.50;99.90;;;;;;5094844;28;20441;-77
2021/03/31 05:57:44;;;;;;;12.43;6.60;;;12.40;99.90;;;;;;5095161;28;20103;-77
2021/03/31 06:00:19;;;;;;;11.88;7.40;;;12.50;99.90;;;;;;5094953;28;20058;-78
2021/03/31 06:02:46;;;;;;;12.82;6.47;;;12.50;99.90;;;;;;5094818;28;20024;-78
2021/03/31 06:05:13;;;;;;;8.98;5.80;;;12.60;99.90;;;;;;5094747;28;20035;-78
2021/03/31 06:07:43;;;;;;;8.27;5.85;;;12.70;99.90;;;;;;5094499;28;20029;-78
2021/03/31 06:10:13;;;;;;;8.60;6.00;;;12.70;99.90;;;;;;5094762;28;20028;-78
2021/03/31 06:12:51;;;;;;;14.57;6.80;;;12.80;99.90;;;;;;5094661;28;20058;-78
2021/03/31 06:15:22;;;;;;;14.55;6.43;;;12.90;99.90;;;;;;5094750;28;20038;-78
2021/03/31 06:17:54;;;;;;;9.00;6.63;;;13.00;99.90;;;;;;5094535;28;20051;-78
2021/03/31 06:20:40;;;;;;;11.05;6.72;;;13.10;99.90;;;;;;5094289;28;20407;-78
2021/03/31 06:23:12;;;;;;;9.70;6.47;;;13.20;99.90;;;;;;5073253;28;20102;-78
2021/03/31 06:25:46;;;;;;;9.07;5.93;;;13.10;99.90;;;;;;5074375;28;20456;-84
2021/03/31 06:28:12;;;;;;;12.50;6.38;;;13.10;99.90;;;;;;5074361;28;20029;-79
2021/03/31 06:30:39;;;;;;;10.25;6.10;;;13.10;99.90;;;;;;5073985;28;20400;-78
2021/03/31 06:33:05;;;;;;;10.73;6.82;;;13.10;99.90;;;;;;5074219;28;20013;-79
2021/03/31 06:35:31;;;;;;;10.20;6.63;;;13.30;99.90;;;;;;5074176;28;20032;-79
2021/03/31 06:38:05;;;;;;;11.48;6.15;;;13.40;99.90;;;;;;5073596;28;20044;-78
2021/03/31 06:40:58;;;;;;;12.65;6.38;;;13.50;99.90;;;;;;5074161;28;20384;-78
2021/03/31 06:45:56;;;;;;;12.40;6.05;;;13.60;99.90;;;;;;5073852;28;20028;-78
2021/03/31 06:48:24;;;;;;;12.43;5.93;;;13.70;99.90;;;;;;5073954;28;20431;-79
2021/03/31 06:50:50;;;;;;;11.63;6.20;;;13.80;99.90;;;;;;5073687;28;20058;-79
2021/03/31 06:53:28;;;;;;;10.20;5.72;;;13.90;99.90;;;;;;5073452;28;20493;-79
2021/03/31 06:56:02;;;;;;;10.65;5.43;;;14.10;99.90;;;;;;5073603;28;20113;-79
2021/03/31 06:58:29;;;;;;;11.85;5.95;;;14.20;99.90;;;;;;5073796;28;20440;-79
2021/03/31 07:00:57;;;;;;;9.98;5.60;;;14.30;99.90;;;;;;5073520;28;20481;-78
2021/03/31 07:03:23;;;;;;;11.60;6.90;;;14.50;99.90;;;;;;5072375;28;20027;-78
2021/03/31 07:05:49;;;;;;;11.40;7.90;;;14.60;99.90;;;;;;5073063;28;20028;-78
2021/03/31 07:08:16;;;;;;;15.48;8.15;;;14.60;99.90;;;;;;5073472;28;20438;-78
2021/03/31 07:10:50;;;;;;;17.67;8.45;;;14.60;99.90;;;;;;5073194;28;20033;-78
2021/03/31 07:13:33;;;;;;;9.00;7.13;;;14.60;99.90;;;;;;5073490;28;20013;-78
2021/03/31 07:16:01;;;;;;;11.10;7.35;;;14.80;99.90;;;;;;5073367;28;20035;-78
2021/03/31 07:18:28;;;;;;;10.02;6.38;;;14.80;99.90;;;;;;5073293;28;20021;-78
2021/03/31 07:20:54;;;;;;;13.32;7.10;;;14.90;99.90;;;;;;5072527;28;20063;-78
2021/03/31 07:23:21;;;;;;;12.40;6.65;;;15.00;99.90;;;;;;5092354;28;20024;-78
2021/03/31 07:25:51;;;;;;;14.35;7.03;;;14.90;99.90;;;;;;5093361;28;20376;-78
2021/03/31 07:28:20;;;;;;;14.32;7.30;;;15.00;99.90;;;;;;5093290;28;20024;-78
2021/03/31 07:30:48;;;;;;;16.35;7.95;;;15.00;99.90;;;;;;5093075;28;20035;-78
2021/03/31 07:33:19;;;;;;;12.98;7.05;;;14.90;99.90;;;;;;5093217;28;20024;-78
2021/03/31 07:35:46;;;;;;;14.30;7.55;;;15.10;99.90;;;;;;5092862;28;20103;-78
2021/03/31 07:38:14;;;;;;;13.85;6.97;;;15.10;99.90;;;;;;5093130;28;20087;-78
2021/03/31 07:40:42;;;;;;;13.10;6.78;;;15.10;99.90;;;;;;5093193;28;20030;-78
2021/03/31 07:43:29;;;;;;;11.82;7.05;;;15.30;99.90;;;;;;5093111;28;20026;-78
2021/03/31 07:46:04;;;;;;;12.75;7.28;;;15.50;99.90;;;;;;5092921;28;20434;-78
2021/03/31 07:48:31;;;;;;;14.52;6.90;;;15.50;99.90;;;;;;5092848;28;20483;-78
2021/03/31 07:50:57;;;;;;;13.38;7.70;;;15.60;99.90;;;;;;5092656;28;20089;-78
2021/03/31 07:53:23;;;;;;;13.45;7.25;;;15.70;99.90;;;;;;5092994;28;20051;-78
2021/03/31 07:55:50;;;;;;;14.07;7.20;;;15.80;99.90;;;;;;5092873;28;20020;-78
2021/03/31 07:58:17;;;;;;;10.80;6.70;;;15.80;99.90;;;;;;5092838;28;20148;-78
2021/03/31 08:00:46;;;;;;;13.50;7.07;;;15.80;99.90;;;;;;5092863;28;20031;-78
2021/03/31 08:03:17;;;;;;;13.93;7.20;;;15.90;99.90;;;;;;5092895;28;20031;-78
2021/03/31 08:06:04;;;;;;;9.98;6.90;;;16.10;99.90;;;;;;5092375;28;20492;-78
2021/03/31 08:08:30;;;;;;;15.70;6.93;;;16.30;99.90;;;;;;5092802;28;20034;-78
2021/03/31 08:10:56;;;;;;;9.95;6.43;;;16.40;99.90;;;;;;5092578;28;20032;-78
2021/03/31 08:13:27;;;;;;;13.13;6.22;;;16.60;99.90;;;;;;5092309;28;20028;-78
2021/03/31 08:15:53;;;;;;;9.68;7.00;;;16.70;99.90;;;;;;5092655;28;20492;-78
2021/03/31 08:18:20;;;;;;;13.98;6.47;;;16.70;99.90;;;;;;5092336;28;20476;-78
2021/03/31 08:20:48;;;;;;;12.05;6.25;;;16.70;99.90;;;;;;5092226;28;20070;-78
2021/03/31 08:23:14;;;;;;;11.45;6.65;;;16.80;99.90;;;;;;5092392;28;20445;-78
2021/03/31 08:25:40;;;;;;;9.98;6.00;;;16.90;99.90;;;;;;5092579;28;20040;-78
2021/03/31 08:28:09;;;;;;;12.00;6.72;;;17.10;99.90;;;;;;5092297;28;20035;-78
2021/03/31 08:30:38;;;;;;;8.40;5.90;;;17.10;99.90;;;;;;5092296;28;20024;-78
2021/03/31 08:33:05;;;;;;;10.20;6.47;;;17.30;99.90;;;;;;5092229;28;20024;-78
2021/03/31 08:35:32;;;;;;;10.45;6.50;;;17.40;99.90;;;;;;5092592;28;20066;-78
2021/03/31 08:37:59;;;;;;;13.00;5.97;;;17.60;99.90;;;;;;5092303;28;20019;-78
2021/03/31 08:40:30;;;;;;;8.02;5.10;;;17.60;99.90;;;;;;5092336;28;20073;-78
2021/03/31 08:42:59;;;;;;;14.55;5.47;;;17.70;99.90;;;;;;5092377;28;20020;-78
2021/03/31 08:45:31;;;;;;;13.98;5.25;;;17.80;99.90;;;;;;5092224;28;20028;-78
2021/03/31 08:47:58;;;;;;;10.95;6.20;;;18.10;99.90;;;;;;5092095;28;20488;-78
2021/03/31 08:50:27;;;;;;;14.30;5.30;;;18.30;99.90;;;;;;5092181;28;20464;-78
2021/03/31 08:53:05;;;;;;;7.00;4.45;;;18.40;99.90;;;;;;5092021;28;20099;-78
2021/03/31 08:55:34;;;;;;;8.35;5.53;;;18.60;99.90;;;;;;5092311;28;20078;-78
2021/03/31 08:58:03;;;;;;;9.65;4.35;;;18.60;99.90;;;;;;5092192;28;20099;-78
2021/03/31 09:00:29;;;;;;;8.45;4.47;;;18.70;99.90;;;;;;5092349;28;20427;-78
2021/03/31 09:03:05;;;;;;;13.65;5.00;;;18.70;99.90;;;;;;5091591;28;20035;-78
2021/03/31 09:05:30;;;;;;;6.28;4.20;;;18.80;99.90;;;;;;5092164;28;20458;-78
2021/03/31 09:08:00;;;;;;;8.05;4.30;;;19.00;99.90;;;;;;5092140;28;20399;-78
2021/03/31 09:10:28;;;;;;;8.45;4.30;;;19.00;99.90;;;;;;5092148;28;20383;-78
2021/03/31 09:12:54;;;;;;;5.75;3.95;;;19.20;99.90;;;;;;5092121;28;20020;-78
2021/03/31 09:15:20;;;;;;;6.13;4.32;;;19.30;99.90;;;;;;5092064;28;20095;-78
2021/03/31 09:17:47;;;;;;;8.80;4.30;;;19.40;99.90;;;;;;5091736;28;20056;-78
2021/03/31 09:20:17;;;;;;;9.10;4.35;;;19.40;99.90;;;;;;5091653;28;20047;-78
2021/03/31 09:22:43;;;;;;;7.28;3.92;;;19.60;99.90;;;;;;5091691;28;20055;-78
2021/03/31 09:25:11;;;;;;;6.30;3.88;;;19.70;99.90;;;;;;5091977;28;20055;-78
2021/03/31 09:27:37;;;;;;;10.75;4.03;;;19.70;99.90;;;;;;5095665;28;20510;-78
2021/03/31 09:30:13;;;;;;;10.88;4.53;;;19.80;99.90;;;;;;5095474;28;20152;-78
2021/03/31 09:33:00;;;;;;;6.38;3.65;;;19.80;99.90;;;;;;5095065;28;20039;-78
2021/03/31 09:35:26;;;;;;;9.25;4.25;;;20.10;99.90;;;;;;5095578;28;20044;-78
2021/03/31 09:37:53;;;;;;;10.18;4.50;;;20.40;99.90;;;;;;5095563;28;20062;-79
2021/03/31 09:40:23;;;;;;;8.60;3.83;;;20.70;99.90;;;;;;5095533;28;20441;-79
2021/03/31 09:43:03;;;;;;;5.63;3.80;;;20.90;99.90;;;;;;5095357;28;20024;-78
2021/03/31 09:45:30;;;;;;;8.30;4.03;;;21.10;99.90;;;;;;5095034;28;20413;-78
2021/03/31 09:47:57;;;;;;;6.18;3.92;;;21.20;99.90;;;;;;5095255;28;20024;-78
2021/03/31 09:50:24;;;;;;;8.43;3.65;;;22.30;99.90;;;;;;5095243;28;20135;-78
2021/03/31 09:52:54;;;;;;;7.75;4.18;;;26.30;99.90;;;;;;5095227;28;20012;-78
2021/03/31 09:55:20;;;;;;;9.60;4.13;;;30.60;99.90;;;;;;5095063;28;20095;-78
2021/03/31 09:57:50;;;;;;;8.23;4.32;;;32.60;99.90;;;;;;5095183;28;20019;-78
2021/03/31 10:00:17;;;;;;;4.75;3.83;;;34.60;99.90;;;;;;5093407;28;20502;-78
2021/03/31 10:02:43;;;;;;;7.68;4.20;;;36.80;99.90;;;;;;5094895;28;20031;-78
2021/03/31 10:05:13;;;;;;;7.28;4.22;;;36.70;99.90;;;;;;5094818;28;20511;-78
2021/03/31 10:07:38;;;;;;;7.55;4.30;;;36.30;99.90;;;;;;5094968;28;20028;-79
2021/03/31 10:10:07;;;;;;;6.80;4.03;;;38.10;99.90;;;;;;5093421;28;20089;-79
2021/03/31 10:12:34;;;;;;;6.80;4.22;;;39.20;99.90;;;;;;5094777;28;20028;-79
2021/03/31 10:15:01;;;;;;;5.28;4.13;;;39.50;99.90;;;;;;5094590;28;20488;-79
2021/03/31 10:17:30;;;;;;;6.85;4.45;;;38.90;99.90;;;;;;5093345;28;20032;-79
2021/03/31 10:20:17;;;;;;;9.93;4.25;;;38.60;99.90;;;;;;5094669;28;20047;-79
2021/03/31 10:22:52;;;;;;;7.18;4.30;;;39.10;99.90;;;;;;5094514;28;20078;-79
2021/03/31 10:25:24;;;;;;;7.93;4.10;;;41.00;99.90;;;;;;5094836;28;20024;-79
2021/03/31 10:27:50;;;;;;;10.77;4.07;;;41.10;99.90;;;;;;5094569;28;20024;-79
2021/03/31 10:30:22;;;;;;;6.68;4.20;;;40.30;99.90;;;;;;5094250;28;20024;-79
2021/03/31 10:32:48;;;;;;;5.22;4.00;;;40.50;99.90;;;;;;5094547;28;20024;-79
2021/03/31 10:35:14;;;;;;;5.90;3.70;;;40.60;99.90;;;;;;5094301;28;20499;-79
2021/03/31 10:37:49;;;;;;;7.82;3.90;;;40.50;99.90;;;;;;5094171;28;20028;-79
2021/03/31 10:54:11;;;;;;;9.00;4.38;;;42.10;99.90;;;;;;5051756;28;20520;-79
2021/03/31 10:56:39;;;;;;;7.13;4.22;;;43.00;99.90;;;;;;5051460;28;20154;-79
2021/03/31 10:59:05;;;;;;;8.48;3.97;;;42.30;99.90;;;;;;5051235;28;20421;-79
2021/03/31 11:01:31;;;;;;;8.50;4.25;;;41.30;99.90;;;;;;5051546;28;20100;-79
2021/03/31 11:03:57;;;;;;;4.68;3.58;;;41.70;99.90;;;;;;5051475;28;20078;-79
2021/03/31 11:06:24;;;;;;;4.78;3.45;;;42.50;99.90;;;;;;5051267;28;20037;-79
2021/03/31 11:08:51;;;;;;;6.55;3.40;;;40.60;99.90;;;;;;5051332;28;20481;-80
2021/03/31 11:11:16;;;;;;;6.50;3.60;;;38.50;99.90;;;;;;5051176;28;20029;-80
2021/03/31 11:13:42;;;;;;;7.68;3.67;;;38.50;99.90;;;;;;5051093;28;20666;-80
2021/03/31 11:16:09;;;;;;;4.65;3.55;;;39.20;99.90;;;;;;5051228;28;20032;-80
2021/03/31 11:21:44;;;;;;;6.10;3.50;;;40.30;99.90;;;;;;5050671;28;20548;-80
2021/03/31 11:26:36;;;;;;;4.40;3.33;;;41.50;99.90;;;;;;5071055;28;20073;-80
2021/03/31 11:29:01;;;;;;;6.05;3.65;;;42.40;99.90;;;;;;5073161;28;20024;-80
2021/03/31 11:31:27;;;;;;;6.80;3.85;;;41.50;99.90;;;;;;5072851;28;20036;-80
2021/03/31 11:33:53;;;;;;;3.75;3.30;;;40.40;99.90;;;;;;5072912;28;20551;-80
2021/03/31 11:36:19;;;;;;;5.85;3.33;;;40.10;99.90;;;;;;5073012;28;20025;-80
2021/03/31 11:38:45;;;;;;;4.78;3.50;;;40.30;99.90;;;;;;5073050;28;20527;-80
2021/03/31 11:41:11;;;;;;;6.80;3.65;;;40.70;99.90;;;;;;5072649;28;20040;-80
2021/03/31 11:43:37;;;;;;;3.60;3.30;;;41.50;99.90;;;;;;5072774;28;20058;-80
2021/03/31 11:46:03;;;;;;;5.20;3.40;;;39.50;99.90;;;;;;5072790;28;20031;-80
2021/03/31 11:48:29;;;;;;;6.85;3.35;;;39.30;99.90;;;;;;5072148;28;20024;-80
2021/03/31 11:50:54;;;;;;;6.10;3.47;;;39.40;99.90;;;;;;5072846;28;20043;-80
2021/03/31 11:53:20;;;;;;;3.40;3.10;;;37.40;99.90;;;;;;5072636;28;20032;-80
2021/03/31 11:55:45;;;;;;;5.63;3.70;;;35.00;99.90;;;;;;5072397;28;20029;-80
2021/03/31 11:58:11;;;;;;;5.07;3.63;;;36.20;99.90;;;;;;5072598;28;20020;-80
2021/03/31 12:00:37;;;;;;;4.70;4.00;;;36.40;99.90;;;;;;5071334;28;20039;-80
2021/03/31 12:03:06;;;;;;;8.60;3.80;;;37.40;99.90;;;;;;5071396;28;20025;-79
2021/03/31 12:05:32;;;;;;;6.97;3.70;;;38.20;99.90;;;;;;5072413;28;20035;-79
2021/03/31 12:07:58;;;;;;;5.13;3.47;;;37.10;99.90;;;;;;5072519;28;20013;-80
2021/03/31 12:10:24;;;;;;;5.70;3.75;;;37.80;99.90;;;;;;5070848;28;20032;-80
2021/03/31 12:12:50;;;;;;;6.05;3.90;;;36.00;99.90;;;;;;5072616;28;20039;-79
2021/03/31 12:15:16;;;;;;;4.28;3.53;;;35.60;99.90;;;;;;5072272;28;20025;-79
2021/03/31 12:17:43;;;;;;;4.85;4.03;;;36.70;99.90;;;;;;5072584;28;20025;-79
2021/03/31 12:20:12;;;;;;;5.18;3.78;;;37.30;99.90;;;;;;5072352;28;20106;-79
2021/03/31 12:22:38;;;;;;;4.68;3.83;;;37.90;99.90;;;;;;5085496;28;20020;-79
2021/03/31 12:25:05;;;;;;;7.78;3.80;;;38.10;99.90;;;;;;5092306;28;20094;-79
2021/03/31 12:27:33;;;;;;;5.60;3.83;;;38.40;99.90;;;;;;5092543;28;20016;-79
2021/03/31 12:30:00;;;;;;;7.22;4.28;;;38.20;99.90;;;;;;5092448;28;20484;-79
2021/03/31 12:32:25;;;;;;;4.85;3.15;;;38.90;99.90;;;;;;5092477;28;20012;-79
2021/03/31 12:34:52;;;;;;;5.18;3.40;;;38.50;99.90;;;;;;5092549;28;20082;-80
2021/03/31 12:37:18;;;;;;;4.90;3.38;;;39.00;99.90;;;;;;5092403;28;20023;-79
2021/03/31 12:39:44;;;;;;;7.75;3.53;;;38.90;99.90;;;;;;5092154;28;20072;-79
2021/03/31 12:42:10;;;;;;;6.90;3.42;;;38.80;99.90;;;;;;5092350;28;20024;-80
2021/03/31 12:44:35;;;;;;;5.93;3.42;;;39.30;99.90;;;;;;5092242;28;20028;-80
2021/03/31 12:47:01;;;;;;;6.07;3.55;;;39.10;99.90;;;;;;5092467;28;20423;-80
2021/03/31 12:49:28;;;;;;;5.72;3.22;;;39.20;99.90;;;;;;5092265;28;20499;-80
2021/03/31 12:52:00;;;;;;;4.20;3.33;;;38.30;99.90;;;;;;5092331;28;20027;-80
2021/03/31 12:56:52;;;;;;;5.78;3.45;;;35.30;99.90;;;;;;5092091;28;20107;-80
2021/03/31 12:59:18;;;;;;;5.25;3.25;;;34.80;99.90;;;;;;5092238;28;20008;-80
2021/03/31 13:01:43;;;;;;;6.97;3.40;;;35.60;99.90;;;;;;5096419;28;20020;-79
2021/03/31 13:04:11;;;;;;;6.38;3.38;;;35.20;99.90;;;;;;5096014;28;20024;-79
2021/03/31 13:06:37;;;;;;;4.28;2.72;;;34.10;99.90;;;;;;5095971;28;20023;-79
2021/03/31 13:09:04;;;;;;;5.82;3.13;;;33.90;99.90;;;;;;5095895;28;20028;-79
2021/03/31 13:11:30;;;;;;;4.45;3.00;;;34.40;99.90;;;;;;5094510;28;20514;-79
2021/03/31 13:27:08;;;;;;;3.50;3.00;;;32.10;99.90;;;;;;5095875;28;20020;-79